This is the latest recevied weather packets stored in our database for station/object KC3LDA. If no packets are shown the sender has not sent any weather packets the latest 10 day(s).
| Time | Temp. | Humidity | Pressure | Rain* | Wind** | Luminosity | Snow |
|---|---|---|---|---|---|---|---|
| 1777665825 | 15° C | 60% | 1008.1 hPa | 0 mm | - | 623 W/m² | - |
| 1777664915 | 15° C | 56% | 1008.1 hPa | 0 mm | - | 661 W/m² | - |
| 1777664611 | 15° C | 59% | 1008.1 hPa | 0 mm | - | 675 W/m² | - |
| 1777664307 | 14.44° C | 61% | 1008.1 hPa | 0 mm | - | 687 W/m² | - |
| 1777663703 | 15° C | 58% | 1008.1 hPa | 0 mm | - | 707 W/m² | - |
| 1777663400 | 16.67° C | 46% | 1008.1 hPa | 0 mm | - | 718 W/m² | - |
| 1777663097 | 16.11° C | 49% | 1008.2 hPa | 0 mm | - | 724 W/m² | - |
| 1777660666 | 15.56° C | 49% | 1008.8 hPa | 0 mm | - | 808 W/m² | - |
| 1777660363 | 15° C | 49% | 1008.6 hPa | 0 mm | - | 817 W/m² | - |
| 1777660059 | 15.56° C | 49% | 1008.7 hPa | 0 mm | - | 824 W/m² | - |
| 1777659757 | 15° C | 51% | 1008.5 hPa | 0 mm | - | 830 W/m² | - |
| 1777659453 | 15° C | 51% | 1008.7 hPa | 0 mm | - | 839 W/m² | - |
| 1777659151 | 15° C | 50% | 1008.6 hPa | 0 mm | - | 845 W/m² | - |
| 1777658849 | 15.56° C | 52% | 1008.6 hPa | 0 mm | - | 851 W/m² | - |
| 1777657938 | 15° C | 51% | 1008.7 hPa | 0 mm | - | 862 W/m² | - |
| 1777657029 | 15° C | 53% | 1008.7 hPa | 0 mm | - | 872 W/m² | - |
| 1777656727 | 15° C | 51% | 1009 hPa | 0 mm | - | 874 W/m² | - |
| 1777656423 | 14.44° C | 54% | 1009.1 hPa | 0 mm | - | 877 W/m² | - |
| 1777656117 | 15° C | 57% | 1008.9 hPa | 0 mm | - | 879 W/m² | - |
| 1777655814 | 14.44° C | 56% | 1009 hPa | 0 mm | - | 878 W/m² | - |
| 1777655511 | 14.44° C | 56% | 1008.8 hPa | 0 mm | - | 876 W/m² | - |
| 1777655208 | 15° C | 53% | 1009.1 hPa | 0 mm | - | 877 W/m² | - |
| 1777654905 | 15° C | 50% | 1009.2 hPa | 0 mm | - | 879 W/m² | - |
| 1777654602 | 15.56° C | 39% | 1008.9 hPa | 0 mm | - | 877 W/m² | - |
| 1777654299 | 15.56° C | 40% | 1008.8 hPa | 0 mm | - | 877 W/m² | - |
* Rain latest hour (hover to see other rain measurements)
** Current wind speed in m/s (hover to see current wind gust speed)